sensor_id;sensor_type;location;lat;lon;timestamp;pressure;altitude;pressure_sealevel;temperature;humidity
13420;BME280;6781;58.440;15.470;2023-04-08T00:01:52;102510.09;;;2.31;100.00
13420;BME280;6781;58.440;15.470;2023-04-08T00:04:19;102522.97;;;2.25;100.00
13420;BME280;6781;58.440;15.470;2023-04-08T00:06:47;102519.56;;;2.26;100.00
13420;BME280;6781;58.440;15.470;2023-04-08T00:09:14;102522.91;;;2.29;100.00
13420;BME280;6781;58.440;15.470;2023-04-08T00:11:40;102530.56;;;2.31;100.00
13420;BME280;6781;58.440;15.470;2023-04-08T00:14:07;102514.41;;;2.27;100.00
13420;BME280;6781;58.440;15.470;2023-04-08T00:16:34;102511.84;;;2.29;100.00
13420;BME280;6781;58.440;15.470;2023-04-08T00:19:01;102516.94;;;2.29;100.00
13420;BME280;6781;58.440;15.470;2023-04-08T00:21:27;102520.41;;;2.25;100.00
13420;BME280;6781;58.440;15.470;2023-04-08T00:23:57;102525.53;;;2.25;100.00
13420;BME280;6781;58.440;15.470;2023-04-08T00:26:23;102531.56;;;2.19;100.00
13420;BME280;6781;58.440;15.470;2023-04-08T00:28:50;102534.09;;;2.24;100.00
13420;BME280;6781;58.440;15.470;2023-04-08T00:31:17;102523.84;;;2.24;100.00
13420;BME280;6781;58.440;15.470;2023-04-08T00:33:44;102522.19;;;2.20;100.00
13420;BME280;6781;58.440;15.470;2023-04-08T00:36:11;102528.13;;;2.22;100.00
13420;BME280;6781;58.440;15.470;2023-04-08T00:38:37;102529.88;;;2.18;100.00
13420;BME280;6781;58.440;15.470;2023-04-08T00:41:06;102529.00;;;2.21;100.00
13420;BME280;6781;58.440;15.470;2023-04-08T00:43:33;102527.31;;;2.20;100.00
13420;BME280;6781;58.440;15.470;2023-04-08T00:45:59;102535.84;;;2.20;100.00
13420;BME280;6781;58.440;15.470;2023-04-08T00:48:26;102532.44;;;2.20;100.00
13420;BME280;6781;58.440;15.470;2023-04-08T00:50:53;102536.75;;;2.15;100.00
13420;BME280;6781;58.440;15.470;2023-04-08T00:53:20;102535.84;;;2.19;100.00
13420;BME280;6781;58.440;15.470;2023-04-08T00:55:46;102540.13;;;2.18;100.00
13420;BME280;6781;58.440;15.470;2023-04-08T00:58:15;102540.91;;;2.25;100.00
13420;BME280;6781;58.440;15.470;2023-04-08T01:00:43;102537.50;;;2.23;100.00
13420;BME280;6781;58.440;15.470;2023-04-08T01:03:13;102538.34;;;2.23;100.00
13420;BME280;6781;58.440;15.470;2023-04-08T01:05:43;102535.78;;;2.25;100.00
13420;BME280;6781;58.440;15.470;2023-04-08T01:08:16;102542.56;;;2.27;100.00
13420;BME280;6781;58.440;15.470;2023-04-08T01:10:43;102539.16;;;2.27;100.00
13420;BME280;6781;58.440;15.470;2023-04-08T01:13:11;102532.31;;;2.29;100.00
13420;BME280;6781;58.440;15.470;2023-04-08T01:15:41;102535.72;;;2.28;100.00
13420;BME280;6781;58.440;15.470;2023-04-08T01:18:11;102522.97;;;2.26;100.00
13420;BME280;6781;58.440;15.470;2023-04-08T01:20:38;102521.25;;;2.27;100.00
13420;BME280;6781;58.440;15.470;2023-04-08T01:23:09;102517.03;;;2.23;100.00
13420;BME280;6781;58.440;15.470;2023-04-08T01:25:38;102513.66;;;2.21;100.00
13420;BME280;6781;58.440;15.470;2023-04-08T01:28:07;102514.44;;;2.26;100.00
13420;BME280;6781;58.440;15.470;2023-04-08T01:30:36;102510.13;;;2.28;100.00
13420;BME280;6781;58.440;15.470;2023-04-08T01:33:03;102506.75;;;2.26;100.00
13420;BME280;6781;58.440;15.470;2023-04-08T01:35:31;102501.63;;;2.26;100.00
13420;BME280;6781;58.440;15.470;2023-04-08T01:37:58;102499.06;;;2.27;100.00
13420;BME280;6781;58.440;15.470;2023-04-08T01:40:25;102499.91;;;2.28;100.00
13420;BME280;6781;58.440;15.470;2023-04-08T01:42:53;102505.06;;;2.25;100.00
13420;BME280;6781;58.440;15.470;2023-04-08T01:45:22;102493.94;;;2.26;100.00
13420;BME280;6781;58.440;15.470;2023-04-08T01:47:49;102499.09;;;2.24;100.00
13420;BME280;6781;58.440;15.470;2023-04-08T01:50:16;102496.50;;;2.27;100.00
13420;BME280;6781;58.440;15.470;2023-04-08T01:52:45;102494.03;;;2.20;100.00
13420;BME280;6781;58.440;15.470;2023-04-08T01:55:13;102495.72;;;2.21;100.00
13420;BME280;6781;58.440;15.470;2023-04-08T01:57:40;102494.03;;;2.20;100.00
13420;BME280;6781;58.440;15.470;2023-04-08T02:00:10;102494.00;;;2.23;100.00
13420;BME280;6781;58.440;15.470;2023-04-08T02:02:39;102485.44;;;2.25;100.00
13420;BME280;6781;58.440;15.470;2023-04-08T02:07:43;102488.84;;;2.26;100.00
13420;BME280;6781;58.440;15.470;2023-04-08T02:10:11;102480.41;;;2.19;100.00
13420;BME280;6781;58.440;15.470;2023-04-08T02:12:37;102474.38;;;2.22;100.00
13420;BME280;6781;58.440;15.470;2023-04-08T02:15:05;102480.25;;;2.30;100.00
13420;BME280;6781;58.440;15.470;2023-04-08T02:17:32;102472.59;;;2.27;100.00
13420;BME280;6781;58.440;15.470;2023-04-08T02:20:04;102481.19;;;2.23;100.00
13420;BME280;6781;58.440;15.470;2023-04-08T02:22:35;102470.97;;;2.23;100.00
13420;BME280;6781;58.440;15.470;2023-04-08T02:25:04;102478.63;;;2.23;100.00
13420;BME280;6781;58.440;15.470;2023-04-08T02:27:33;102480.34;;;2.22;100.00
13420;BME280;6781;58.440;15.470;2023-04-08T02:30:01;102484.63;;;2.22;100.00
13420;BME280;6781;58.440;15.470;2023-04-08T02:32:29;102482.91;;;2.22;100.00
13420;BME280;6781;58.440;15.470;2023-04-08T02:34:56;102478.66;;;2.21;100.00
13420;BME280;6781;58.440;15.470;2023-04-08T02:37:26;102482.09;;;2.20;100.00
13420;BME280;6781;58.440;15.470;2023-04-08T02:39:53;102485.63;;;2.12;100.00
13420;BME280;6781;58.440;15.470;2023-04-08T02:42:20;102486.47;;;2.11;100.00
13420;BME280;6781;58.440;15.470;2023-04-08T02:44:47;102491.56;;;2.14;100.00
13420;BME280;6781;58.440;15.470;2023-04-08T02:47:13;102492.34;;;2.19;100.00
13420;BME280;6781;58.440;15.470;2023-04-08T02:49:40;102498.31;;;2.18;100.00
13420;BME280;6781;58.440;15.470;2023-04-08T02:52:07;102496.63;;;2.18;100.00
13420;BME280;6781;58.440;15.470;2023-04-08T02:54:36;102489.78;;;2.19;100.00
13420;BME280;6781;58.440;15.470;2023-04-08T02:57:02;102500.84;;;2.21;100.00
13420;BME280;6781;58.440;15.470;2023-04-08T02:59:29;102501.75;;;2.17;100.00
13420;BME280;6781;58.440;15.470;2023-04-08T03:01:56;102503.47;;;2.16;100.00
13420;BME280;6781;58.440;15.470;2023-04-08T03:04:23;102500.88;;;2.18;100.00
13420;BME280;6781;58.440;15.470;2023-04-08T03:06:50;102500.09;;;2.13;100.00
13420;BME280;6781;58.440;15.470;2023-04-08T03:09:16;102501.00;;;2.09;100.00
13420;BME280;6781;58.440;15.470;2023-04-08T03:11:45;102506.97;;;2.09;100.00
13420;BME280;6781;58.440;15.470;2023-04-08T03:14:16;102499.25;;;2.12;100.00
13420;BME280;6781;58.440;15.470;2023-04-08T03:16:45;102511.16;;;2.15;100.00
13420;BME280;6781;58.440;15.470;2023-04-08T03:19:11;102512.94;;;2.10;100.00
13420;BME280;6781;58.440;15.470;2023-04-08T03:21:38;102515.44;;;2.13;100.00
13420;BME280;6781;58.440;15.470;2023-04-08T03:24:05;102518.84;;;2.15;100.00
13420;BME280;6781;58.440;15.470;2023-04-08T03:26:32;102512.06;;;2.11;100.00
13420;BME280;6781;58.440;15.470;2023-04-08T03:29:00;102520.56;;;2.13;100.00
13420;BME280;6781;58.440;15.470;2023-04-08T03:31:27;102524.03;;;2.09;100.00
13420;BME280;6781;58.440;15.470;2023-04-08T03:33:54;102519.81;;;2.06;100.00
13420;BME280;6781;58.440;15.470;2023-04-08T03:36:20;102522.34;;;2.08;100.00
13420;BME280;6781;58.440;15.470;2023-04-08T03:38:47;102530.81;;;2.11;100.00
13420;BME280;6781;58.440;15.470;2023-04-08T03:41:14;102531.69;;;2.10;100.00
13420;BME280;6781;58.440;15.470;2023-04-08T03:43:41;102534.22;;;2.12;100.00
13420;BME280;6781;58.440;15.470;2023-04-08T03:46:09;102530.81;;;2.13;100.00
13420;BME280;6781;58.440;15.470;2023-04-08T03:48:36;102534.22;;;2.12;100.00
13420;BME280;6781;58.440;15.470;2023-04-08T03:51:02;102539.31;;;2.15;100.00
13420;BME280;6781;58.440;15.470;2023-04-08T03:53:29;102534.19;;;2.15;100.00
13420;BME280;6781;58.440;15.470;2023-04-08T03:55:56;102539.31;;;2.15;100.00
13420;BME280;6781;58.440;15.470;2023-04-08T03:58:23;102545.34;;;2.11;100.00
13420;BME280;6781;58.440;15.470;2023-04-08T04:00:50;102541.03;;;2.13;100.00
13420;BME280;6781;58.440;15.470;2023-04-08T04:03:18;102535.94;;;2.13;100.00
13420;BME280;6781;58.440;15.470;2023-04-08T04:05:45;102547.81;;;2.17;100.00
13420;BME280;6781;58.440;15.470;2023-04-08T04:08:12;102556.38;;;2.16;100.00
13420;BME280;6781;58.440;15.470;2023-04-08T04:10:40;102554.66;;;2.15;100.00
13420;BME280;6781;58.440;15.470;2023-04-08T04:13:06;102558.16;;;2.08;100.00
13420;BME280;6781;58.440;15.470;2023-04-08T04:15:34;102564.13;;;2.10;100.00
13420;BME280;6781;58.440;15.470;2023-04-08T04:18:03;102564.94;;;2.12;100.00
13420;BME280;6781;58.440;15.470;2023-04-08T04:20:31;102568.34;;;2.12;100.00
13420;BME280;6781;58.440;15.470;2023-04-08T04:22:58;102573.50;;;2.09;100.00
13420;BME280;6781;58.440;15.470;2023-04-08T04:25:25;102575.19;;;2.12;100.00
13420;BME280;6781;58.440;15.470;2023-04-08T04:27:51;102579.41;;;2.14;100.00
13420;BME280;6781;58.440;15.470;2023-04-08T04:30:18;102583.66;;;2.17;100.00
13420;BME280;6781;58.440;15.470;2023-04-08T04:32:45;102585.34;;;2.18;100.00
13420;BME280;6781;58.440;15.470;2023-04-08T04:35:11;102583.63;;;2.20;100.00
13420;BME280;6781;58.440;15.470;2023-04-08T04:37:40;102592.16;;;2.19;100.00
13420;BME280;6781;58.440;15.470;2023-04-08T04:40:07;102591.22;;;2.26;100.00
13420;BME280;6781;58.440;15.470;2023-04-08T04:42:34;102586.13;;;2.24;100.00
13420;BME280;6781;58.440;15.470;2023-04-08T04:45:00;102594.63;;;2.26;100.00
13420;BME280;6781;58.440;15.470;2023-04-08T04:47:28;102594.59;;;2.29;100.00
13420;BME280;6781;58.440;15.470;2023-04-08T04:49:56;102598.94;;;2.23;100.00
13420;BME280;6781;58.440;15.470;2023-04-08T04:52:23;102593.78;;;2.26;100.00
13420;BME280;6781;58.440;15.470;2023-04-08T04:54:51;102603.97;;;2.29;100.00
13420;BME280;6781;58.440;15.470;2023-04-08T04:57:18;102595.41;;;2.33;100.00
13420;BME280;6781;58.440;15.470;2023-04-08T04:59:45;102605.56;;;2.39;100.00
13420;BME280;6781;58.440;15.470;2023-04-08T05:02:12;102606.38;;;2.43;100.00
13420;BME280;6781;58.440;15.470;2023-04-08T05:04:41;102607.19;;;2.46;100.00
13420;BME280;6781;58.440;15.470;2023-04-08T05:07:08;102609.66;;;2.52;100.00
13420;BME280;6781;58.440;15.470;2023-04-08T05:09:35;102610.53;;;2.51;100.00
13420;BME280;6781;58.440;15.470;2023-04-08T05:12:03;102607.16;;;2.49;100.00
13420;BME280;6781;58.440;15.470;2023-04-08T05:14:30;102598.53;;;2.56;100.00
13420;BME280;6781;58.440;15.470;2023-04-08T05:17:00;102601.81;;;2.65;100.00
13420;BME280;6781;58.440;15.470;2023-04-08T05:19:26;102597.66;;;2.57;100.00
13420;BME280;6781;58.440;15.470;2023-04-08T05:21:53;102596.75;;;2.61;100.00
13420;BME280;6781;58.440;15.470;2023-04-08T05:24:20;102598.31;;;2.72;100.00
13420;BME280;6781;58.440;15.470;2023-04-08T05:26:47;102595.78;;;2.70;100.00
13420;BME280;6781;58.440;15.470;2023-04-08T05:29:18;102596.66;;;2.68;100.00
13420;BME280;6781;58.440;15.470;2023-04-08T05:31:46;102595.03;;;2.62;100.00
13420;BME280;6781;58.440;15.470;2023-04-08T05:34:12;102594.91;;;2.71;100.00
13420;BME280;6781;58.440;15.470;2023-04-08T05:36:39;102593.31;;;2.63;100.00
13420;BME280;6781;58.440;15.470;2023-04-08T05:39:08;102597.59;;;2.62;100.00
13420;BME280;6781;58.440;15.470;2023-04-08T05:41:35;102599.34;;;2.58;100.00
13420;BME280;6781;58.440;15.470;2023-04-08T05:44:03;102592.53;;;2.57;100.00
13420;BME280;6781;58.440;15.470;2023-04-08T05:46:31;102592.63;;;2.50;100.00
13420;BME280;6781;58.440;15.470;2023-04-08T05:48:58;102600.34;;;2.47;100.00
13420;BME280;6781;58.440;15.470;2023-04-08T05:51:24;102595.94;;;2.58;100.00
13420;BME280;6781;58.440;15.470;2023-04-08T06:09:16;102608.22;;;2.96;100.00
13420;BME280;6781;58.440;15.470;2023-04-08T06:11:42;102601.28;;;3.04;100.00
13420;BME280;6781;58.440;15.470;2023-04-08T06:14:11;102595.25;;;3.07;100.00
13420;BME280;6781;58.440;15.470;2023-04-08T06:16:41;102596.09;;;3.07;100.00
13420;BME280;6781;58.440;15.470;2023-04-08T06:19:08;102591.78;;;3.11;100.00
13420;BME280;6781;58.440;15.470;2023-04-08T06:21:35;102598.31;;;3.29;100.00
13420;BME280;6781;58.440;15.470;2023-04-08T06:24:11;102596.59;;;3.31;100.00
13420;BME280;6781;58.440;15.470;2023-04-08T06:26:40;102595.72;;;3.32;100.00
13420;BME280;6781;58.440;15.470;2023-04-08T06:29:07;102589.66;;;3.36;100.00
13420;BME280;6781;58.440;15.470;2023-04-08T06:31:33;102600.00;;;3.31;100.00
13420;BME280;6781;58.440;15.470;2023-04-08T06:34:00;102594.66;;;3.43;100.00
13420;BME280;6781;58.440;15.470;2023-04-08T06:36:27;102604.09;;;3.41;100.00
13420;BME280;6781;58.440;15.470;2023-04-08T06:38:56;102609.78;;;3.57;100.00
13420;BME280;6781;58.440;15.470;2023-04-08T06:41:24;102613.13;;;3.62;100.00
13420;BME280;6781;58.440;15.470;2023-04-08T06:43:52;102612.94;;;3.73;100.00
13420;BME280;6781;58.440;15.470;2023-04-08T06:46:19;102613.41;;;3.95;100.00
13420;BME280;6781;58.440;15.470;2023-04-08T06:48:46;102598.94;;;3.90;100.00
13420;BME280;6781;58.440;15.470;2023-04-08T06:51:13;102588.66;;;3.90;100.00
13420;BME280;6781;58.440;15.470;2023-04-08T06:53:39;102584.72;;;4.17;100.00
13420;BME280;6781;58.440;15.470;2023-04-08T06:56:06;102572.75;;;4.16;100.00
13420;BME280;6781;58.440;15.470;2023-04-08T06:58:33;102564.84;;;4.27;100.00
13420;BME280;6781;58.440;15.470;2023-04-08T07:01:03;102564.44;;;4.45;100.00
13420;BME280;6781;58.440;15.470;2023-04-08T07:03:29;102558.81;;;4.28;100.00
13420;BME280;6781;58.440;15.470;2023-04-08T07:05:56;102560.03;;;4.52;100.00
13420;BME280;6781;58.440;15.470;2023-04-08T07:08:23;102545.53;;;4.49;100.00
13420;BME280;6781;58.440;15.470;2023-04-08T07:10:50;102543.69;;;4.54;100.00
13420;BME280;6781;58.440;15.470;2023-04-08T07:13:17;102543.75;;;4.51;100.00
13420;BME280;6781;58.440;15.470;2023-04-08T07:15:44;102537.22;;;4.38;100.00
13420;BME280;6781;58.440;15.470;2023-04-08T07:18:13;102537.81;;;4.49;100.00
13420;BME280;6781;58.440;15.470;2023-04-08T07:20:40;102538.53;;;4.56;100.00
13420;BME280;6781;58.440;15.470;2023-04-08T07:23:20;102538.16;;;4.34;100.00
13420;BME280;6781;58.440;15.470;2023-04-08T07:25:47;102540.38;;;4.49;100.00
13420;BME280;6781;58.440;15.470;2023-04-08T07:28:44;102527.94;;;4.31;100.00
13420;BME280;6781;58.440;15.470;2023-04-08T07:31:13;102530.38;;;4.37;100.00
13420;BME280;6781;58.440;15.470;2023-04-08T07:33:40;102533.22;;;4.25;100.00
13420;BME280;6781;58.440;15.470;2023-04-08T07:36:11;102529.72;;;4.28;100.00
13420;BME280;6781;58.440;15.470;2023-04-08T07:38:52;102536.41;;;4.36;100.00
13420;BME280;6781;58.440;15.470;2023-04-08T07:41:19;102534.44;;;4.47;100.00
13420;BME280;6781;58.440;15.470;2023-04-08T07:43:54;102527.69;;;4.43;100.00
13420;BME280;6781;58.440;15.470;2023-04-08T07:46:26;102529.16;;;4.53;100.00
13420;BME280;6781;58.440;15.470;2023-04-08T07:49:02;102522.16;;;4.60;100.00
13420;BME280;6781;58.440;15.470;2023-04-08T07:51:29;102531.59;;;4.60;100.00
13420;BME280;6781;58.440;15.470;2023-04-08T07:53:58;102519.31;;;4.72;100.00
13420;BME280;6781;58.440;15.470;2023-04-08T07:56:25;102518.31;;;4.78;100.00
13420;BME280;6781;58.440;15.470;2023-04-08T07:58:57;102518.41;;;4.75;100.00
13420;BME280;6781;58.440;15.470;2023-04-08T08:01:24;102524.94;;;4.88;100.00
13420;BME280;6781;58.440;15.470;2023-04-08T08:03:55;102517.06;;;4.94;100.00
13420;BME280;6781;58.440;15.470;2023-04-08T08:06:27;102514.06;;;4.77;100.00
13420;BME280;6781;58.440;15.470;2023-04-08T08:08:56;102518.81;;;4.94;100.00
13420;BME280;6781;58.440;15.470;2023-04-08T08:11:23;102508.56;;;4.92;100.00
13420;BME280;6781;58.440;15.470;2023-04-08T08:13:52;102502.09;;;5.11;100.00
13420;BME280;6781;58.440;15.470;2023-04-08T08:16:21;102497.59;;;5.19;100.00
13420;BME280;6781;58.440;15.470;2023-04-08T08:18:51;102496.56;;;5.25;100.00
13420;BME280;6781;58.440;15.470;2023-04-08T08:21:18;102497.06;;;5.07;100.00
13420;BME280;6781;58.440;15.470;2023-04-08T08:23:45;102500.84;;;5.24;100.00
13420;BME280;6781;58.440;15.470;2023-04-08T08:26:12;102490.31;;;5.34;100.00
13420;BME280;6781;58.440;15.470;2023-04-08T08:28:39;102485.06;;;5.38;100.00
13420;BME280;6781;58.440;15.470;2023-04-08T08:31:06;102487.09;;;5.26;100.00
13420;BME280;6781;58.440;15.470;2023-04-08T08:33:34;102483.63;;;5.28;100.00
13420;BME280;6781;58.440;15.470;2023-04-08T08:36:01;102485.94;;;5.37;100.00
13420;BME280;6781;58.440;15.470;2023-04-08T08:38:29;102483.94;;;5.48;100.00
13420;BME280;6781;58.440;15.470;2023-04-08T08:40:56;102486.50;;;5.48;100.00
13420;BME280;6781;58.440;15.470;2023-04-08T08:43:25;102482.84;;;5.57;100.00
13420;BME280;6781;58.440;15.470;2023-04-08T08:46:16;102477.84;;;5.51;100.00
13420;BME280;6781;58.440;15.470;2023-04-08T08:48:53;102481.56;;;5.72;100.00
13420;BME280;6781;58.440;15.470;2023-04-08T08:51:39;102476.09;;;5.53;100.00
13420;BME280;6781;58.440;15.470;2023-04-08T08:54:15;102478.94;;;5.73;100.00
13420;BME280;6781;58.440;15.470;2023-04-08T08:56:42;102468.66;;;5.73;100.00
13420;BME280;6781;58.440;15.470;2023-04-08T08:59:11;102478.16;;;5.71;100.00
13420;BME280;6781;58.440;15.470;2023-04-08T09:01:38;102469.31;;;5.80;100.00
13420;BME280;6781;58.440;15.470;2023-04-08T09:04:19;102475.63;;;6.01;100.00
13420;BME280;6781;58.440;15.470;2023-04-08T09:07:10;102465.38;;;5.99;100.00
13420;BME280;6781;58.440;15.470;2023-04-08T09:09:51;102472.03;;;6.06;100.00
13420;BME280;6781;58.440;15.470;2023-04-08T09:12:31;102464.34;;;6.05;100.00
13420;BME280;6781;58.440;15.470;2023-04-08T09:15:02;102463.19;;;6.15;100.00
13420;BME280;6781;58.440;15.470;2023-04-08T09:17:33;102462.38;;;6.13;100.00
13420;BME280;6781;58.440;15.470;2023-04-08T09:20:08;102457.75;;;6.24;100.00
13420;BME280;6781;58.440;15.470;2023-04-08T09:22:54;102456.53;;;6.36;100.00
13420;BME280;6781;58.440;15.470;2023-04-08T09:25:31;102456.84;;;6.25;100.00
13420;BME280;6781;58.440;15.470;2023-04-08T09:28:20;102451.50;;;6.31;100.00
13420;BME280;6781;58.440;15.470;2023-04-08T09:34:14;102450.19;;;6.46;100.00
13420;BME280;6781;58.440;15.470;2023-04-08T10:06:04;102393.41;;;7.92;92.83
13420;BME280;6781;58.440;15.470;2023-04-08T10:13:27;102393.34;;;7.94;92.83
13420;BME280;6781;58.440;15.470;2023-04-08T10:15:09;102394.69;;;8.04;92.41
13420;BME280;6781;58.440;15.470;2023-04-08T10:17:56;102395.16;;;8.13;93.11
13420;BME280;6781;58.440;15.470;2023-04-08T10:20:57;102386.63;;;8.11;91.16
13420;BME280;6781;58.440;15.470;2023-04-08T10:35:20;102369.19;;;8.79;83.82
13420;BME280;6781;58.440;15.470;2023-04-08T10:38:02;102378.34;;;9.06;84.47
13420;BME280;6781;58.440;15.470;2023-04-08T10:40:46;102390.34;;;9.28;86.35
13420;BME280;6781;58.440;15.470;2023-04-08T10:43:25;102372.84;;;9.33;83.14
13420;BME280;6781;58.440;15.470;2023-04-08T10:45:57;102378.72;;;9.18;83.33
13420;BME280;6781;58.440;15.470;2023-04-08T10:48:45;102376.75;;;8.84;82.66
13420;BME280;6781;58.440;15.470;2023-04-08T10:54:32;102368.78;;;8.68;80.42
13420;BME280;6781;58.440;15.470;2023-04-08T11:00:09;102375.00;;;8.84;80.06
13420;BME280;6781;58.440;15.470;2023-04-08T11:03:07;102382.63;;;8.67;83.92
13420;BME280;6781;58.440;15.470;2023-04-08T11:06:10;102385.03;;;8.71;83.22
13420;BME280;6781;58.440;15.470;2023-04-08T11:08:52;102379.81;;;8.53;81.53
13420;BME280;6781;58.440;15.470;2023-04-08T11:11:31;102374.56;;;8.74;80.18
13420;BME280;6781;58.440;15.470;2023-04-08T11:14:06;102383.22;;;8.73;82.57
13420;BME280;6781;58.440;15.470;2023-04-08T11:16:39;102375.03;;;8.64;80.81
13420;BME280;6781;58.440;15.470;2023-04-08T11:19:09;102372.94;;;8.72;79.54
13420;BME280;6781;58.440;15.470;2023-04-08T11:21:43;102373.44;;;8.80;80.09
13420;BME280;6781;58.440;15.470;2023-04-08T11:24:39;102364.66;;;8.84;78.82
13420;BME280;6781;58.440;15.470;2023-04-08T11:27:21;102357.16;;;8.78;77.33
13420;BME280;6781;58.440;15.470;2023-04-08T11:29:50;102364.25;;;8.93;77.61
13420;BME280;6781;58.440;15.470;2023-04-08T11:32:23;102365.09;;;8.94;77.18
13420;BME280;6781;58.440;15.470;2023-04-08T11:35:01;102364.66;;;8.84;77.24
13420;BME280;6781;58.440;15.470;2023-04-08T11:37:41;102367.34;;;9.01;75.85
13420;BME280;6781;58.440;15.470;2023-04-08T11:40:18;102361.69;;;8.73;74.38
13420;BME280;6781;58.440;15.470;2023-04-08T11:46:06;102372.00;;;9.13;76.94
13420;BME280;6781;58.440;15.470;2023-04-08T11:48:56;102358.03;;;8.97;73.26
13420;BME280;6781;58.440;15.470;2023-04-08T11:51:26;102359.69;;;9.19;72.96
13420;BME280;6781;58.440;15.470;2023-04-08T11:54:13;102351.72;;;9.42;72.14
13420;BME280;6781;58.440;15.470;2023-04-08T11:57:00;102355.56;;;9.33;69.73
13420;BME280;6781;58.440;15.470;2023-04-08T11:59:38;102344.03;;;9.40;69.37
13420;BME280;6781;58.440;15.470;2023-04-08T12:08:11;102344.72;;;9.44;69.30
13420;BME280;6781;58.440;15.470;2023-04-08T12:10:44;102337.53;;;9.32;69.13
13420;BME280;6781;58.440;15.470;2023-04-08T12:13:25;102339.56;;;9.44;69.43
13420;BME280;6781;58.440;15.470;2023-04-08T12:18:41;102326.25;;;9.52;66.70
13420;BME280;6781;58.440;15.470;2023-04-08T12:21:11;102334.22;;;9.66;68.73
13420;BME280;6781;58.440;15.470;2023-04-08T12:24:01;102326.63;;;9.80;67.07
13420;BME280;6781;58.440;15.470;2023-04-08T12:32:33;102308.13;;;9.88;65.39
13420;BME280;6781;58.440;15.470;2023-04-08T12:35:00;102337.84;;;9.81;69.26
13420;BME280;6781;58.440;15.470;2023-04-08T12:37:35;102309.03;;;9.87;65.25
13420;BME280;6781;58.440;15.470;2023-04-08T12:58:36;102294.38;;;10.72;62.35
13420;BME280;6781;58.440;15.470;2023-04-08T13:01:48;102298.97;;;10.67;62.83
13420;BME280;6781;58.440;15.470;2023-04-08T13:04:41;102303.47;;;10.96;63.82
13420;BME280;6781;58.440;15.470;2023-04-08T13:38:40;102263.97;;;11.54;56.24
13420;BME280;6781;58.440;15.470;2023-04-08T13:41:32;102266.22;;;10.97;54.32
13420;BME280;6781;58.440;15.470;2023-04-08T13:53:23;102256.59;;;11.31;54.02
13420;BME280;6781;58.440;15.470;2023-04-08T13:56:14;102261.72;;;11.17;54.80
13420;BME280;6781;58.440;15.470;2023-04-08T13:59:09;102264.88;;;11.37;54.64
13420;BME280;6781;58.440;15.470;2023-04-08T14:02:13;102254.00;;;11.15;54.35
13420;BME280;6781;58.440;15.470;2023-04-08T15:16:56;102237.25;;;11.21;58.26
13420;BME280;6781;58.440;15.470;2023-04-08T15:19:41;102231.88;;;11.24;57.11
13420;BME280;6781;58.440;15.470;2023-04-08T15:22:26;102226.78;;;11.06;56.40
13420;BME280;6781;58.440;15.470;2023-04-08T15:25:08;102208.75;;;10.88;53.42
13420;BME280;6781;58.440;15.470;2023-04-08T15:27:54;102213.28;;;10.84;53.85
13420;BME280;6781;58.440;15.470;2023-04-08T15:30:41;102232.84;;;10.74;56.28
13420;BME280;6781;58.440;15.470;2023-04-08T15:36:29;102238.41;;;10.84;55.64
13420;BME280;6781;58.440;15.470;2023-04-08T15:39:18;102243.22;;;10.74;56.60
13420;BME280;6781;58.440;15.470;2023-04-08T15:42:21;102235.88;;;10.82;55.78
13420;BME280;6781;58.440;15.470;2023-04-08T15:44:58;102237.59;;;10.66;56.30
13420;BME280;6781;58.440;15.470;2023-04-08T15:50:43;102232.31;;;10.52;56.06
13420;BME280;6781;58.440;15.470;2023-04-08T15:53:33;102241.66;;;10.38;56.91
13420;BME280;6781;58.440;15.470;2023-04-08T15:56:19;102258.47;;;10.47;61.00
13420;BME280;6781;58.440;15.470;2023-04-08T15:58:47;102259.53;;;10.27;60.49
13420;BME280;6781;58.440;15.470;2023-04-08T16:01:19;102219.41;;;10.00;58.42
13420;BME280;6781;58.440;15.470;2023-04-08T16:03:52;102259.69;;;10.24;61.19
13420;BME280;6781;58.440;15.470;2023-04-08T16:06:24;102284.31;;;10.33;66.71
13420;BME280;6781;58.440;15.470;2023-04-08T16:08:56;102271.59;;;10.28;63.50
13420;BME280;6781;58.440;15.470;2023-04-08T16:11:35;102289.34;;;10.36;68.57
13420;BME280;6781;58.440;15.470;2023-04-08T16:14:23;102273.84;;;10.17;65.27
13420;BME280;6781;58.440;15.470;2023-04-08T16:16:50;102270.63;;;10.12;67.28
13420;BME280;6781;58.440;15.470;2023-04-08T16:19:21;102275.81;;;10.12;67.14
13420;BME280;6781;58.440;15.470;2023-04-08T16:21:57;102253.72;;;10.05;63.96
13420;BME280;6781;58.440;15.470;2023-04-08T16:33:35;102261.78;;;9.99;63.71
13420;BME280;6781;58.440;15.470;2023-04-08T16:36:34;102259.50;;;9.93;62.63
13420;BME280;6781;58.440;15.470;2023-04-08T16:40:43;102294.22;;;9.71;67.71
13420;BME280;6781;58.440;15.470;2023-04-08T16:45:03;102288.03;;;9.57;66.74
13420;BME280;6781;58.440;15.470;2023-04-08T16:47:38;102277.66;;;9.57;64.90
13420;BME280;6781;58.440;15.470;2023-04-08T16:50:23;102286.06;;;9.43;66.28
13420;BME280;6781;58.440;15.470;2023-04-08T16:52:52;102285.59;;;9.35;67.05
13420;BME280;6781;58.440;15.470;2023-04-08T16:55:19;102311.81;;;9.08;72.02
13420;BME280;6781;58.440;15.470;2023-04-08T16:58:01;102299.94;;;9.04;71.22
13420;BME280;6781;58.440;15.470;2023-04-08T17:00:37;102304.59;;;8.96;73.19
13420;BME280;6781;58.440;15.470;2023-04-08T17:03:04;102306.81;;;8.85;73.58
13420;BME280;6781;58.440;15.470;2023-04-08T17:05:44;102301.72;;;8.84;72.10
13420;BME280;6781;58.440;15.470;2023-04-08T17:08:12;102304.91;;;8.70;73.87
13420;BME280;6781;58.440;15.470;2023-04-08T17:10:50;102313.41;;;8.53;75.83
13420;BME280;6781;58.440;15.470;2023-04-08T17:13:26;102308.75;;;8.41;76.65
13420;BME280;6781;58.440;15.470;2023-04-08T17:16:00;102320.28;;;8.32;78.39
13420;BME280;6781;58.440;15.470;2023-04-08T17:18:30;102329.47;;;8.19;81.78